createdAt,value
2018-04-29T00:01:03.644Z,29.8
2018-04-29T00:11:03.617Z,27.9
2018-04-29T00:21:03.574Z,29.0
2018-04-29T00:31:03.410Z,29.7
2018-04-29T00:41:04.339Z,28.6
2018-04-29T00:51:04.159Z,25.3
2018-04-29T01:01:04.049Z,24.7
2018-04-29T01:11:03.943Z,24.8
2018-04-29T01:21:03.978Z,23.4
2018-04-29T01:31:03.880Z,22.2
2018-04-29T01:41:03.791Z,22.3
2018-04-29T01:51:03.681Z,22.5
2018-04-29T02:01:03.575Z,21.9
2018-04-29T02:11:04.405Z,21.8
2018-04-29T02:21:04.446Z,22.0
2018-04-29T02:31:04.341Z,20.9
2018-04-29T02:41:04.236Z,20.0
2018-04-29T02:51:04.171Z,16.1
2018-04-29T03:01:04.064Z,15.7
2018-04-29T03:11:03.953Z,14.9
2018-04-29T03:21:03.856Z,13.8
2018-04-29T03:31:03.711Z,14.6
2018-04-29T03:41:03.555Z,13.5
2018-04-29T03:51:04.471Z,14.5
2018-04-29T04:01:04.375Z,15.3
2018-04-29T04:11:04.200Z,14.8
2018-04-29T04:21:04.219Z,16.0
2018-04-29T04:31:04.507Z,15.1
2018-04-29T04:41:04.374Z,13.2
2018-04-29T04:51:03.920Z,14.3
2018-04-29T05:01:03.769Z,13.4
2018-04-29T05:11:03.590Z,14.1
2018-04-29T05:21:03.565Z,13.3
2018-04-29T05:31:04.446Z,14.9
2018-04-29T05:41:04.417Z,16.8
2018-04-29T05:51:04.231Z,14.3
2018-04-29T06:01:04.116Z,15.3
2018-04-29T06:11:03.995Z,14.1
2018-04-29T06:21:03.954Z,13.9
2018-04-29T06:31:03.913Z,15.3
2018-04-29T06:41:04.051Z,14.8
2018-04-29T06:51:03.978Z,16.5
2018-04-29T07:01:03.913Z,16.6
2018-04-29T07:11:03.853Z,20.7
2018-04-29T07:21:03.893Z,32.2
2018-04-29T07:31:03.748Z,19.4
2018-04-29T07:41:03.686Z,20.4
2018-04-29T07:51:04.614Z,15.1
2018-04-29T08:01:04.485Z,11.2
2018-04-29T08:11:04.350Z,14.9
2018-04-29T08:21:03.446Z,11.5
2018-04-29T08:31:04.361Z,15.6
2018-04-29T08:41:04.297Z,12.2
2018-04-29T08:51:04.150Z,12.1
2018-04-29T09:01:04.073Z,10.7
2018-04-29T09:11:04.030Z,9.6
2018-04-29T09:21:04.105Z,13.5
2018-04-29T09:31:04.033Z,12.8
2018-04-29T09:41:03.049Z,10.9
2018-04-29T09:51:02.967Z,10.9
2018-04-29T10:01:02.981Z,12.6
2018-04-29T10:11:03.923Z,11.4
2018-04-29T10:21:03.004Z,9.3
2018-04-29T10:31:03.950Z,7.7
2018-04-29T10:41:03.045Z,7.6
2018-04-29T11:03:17.890Z,8.3
2018-04-29T11:13:09.978Z,9.0
2018-04-29T11:21:03.165Z,9.0
2018-04-29T11:31:04.177Z,8.7
2018-04-29T11:41:03.134Z,8.2
2018-04-29T11:51:03.030Z,7.7
2018-04-29T12:01:02.997Z,8.2
2018-04-29T12:11:02.935Z,6.5
2018-04-29T12:21:02.917Z,6.7
2018-04-29T12:31:02.836Z,6.6
2018-04-29T12:41:02.728Z,7.1
2018-04-29T12:51:03.660Z,7.7
2018-04-29T13:01:03.552Z,7.5
2018-04-29T13:11:03.497Z,7.5
2018-04-29T13:21:03.542Z,6.3
2018-04-29T13:31:03.499Z,5.5
2018-04-29T13:41:04.432Z,8.4
2018-04-29T13:51:04.310Z,6.8
2018-04-29T14:01:04.511Z,6.6
2018-04-29T14:11:04.465Z,7.5
2018-04-29T14:21:04.524Z,12.6
2018-04-29T14:31:03.375Z,9.2
2018-04-29T14:41:04.297Z,15.2
2018-04-29T14:51:04.241Z,12.5
2018-04-29T15:01:04.186Z,11.3
2018-04-29T15:11:03.107Z,9.3
2018-04-29T15:21:04.139Z,7.1
2018-04-29T15:31:03.076Z,7.2
2018-04-29T15:41:04.061Z,13.9
2018-04-29T15:51:04.032Z,8.4
2018-04-29T16:01:04.048Z,8.8
2018-04-29T16:11:03.014Z,10.3
2018-04-29T16:21:04.166Z,11.3
2018-04-29T16:31:03.120Z,11.9
2018-04-29T16:41:04.061Z,11.1
2018-04-29T16:51:04.070Z,11.3
2018-04-29T17:01:03.025Z,11.6
2018-04-29T17:11:02.899Z,12.5
2018-04-29T17:21:04.006Z,12.5
2018-04-29T17:31:02.856Z,14.0
2018-04-29T17:41:04.804Z,15.8
2018-04-29T17:51:04.767Z,18.0
2018-04-29T18:01:04.750Z,20.1
2018-04-29T18:11:03.688Z,21.7
2018-04-29T18:21:03.743Z,22.2
2018-04-29T18:31:03.695Z,22.1
2018-04-29T18:41:04.656Z,21.2
2018-04-29T18:51:05.300Z,21.4
2018-04-29T19:01:04.548Z,19.9
2018-04-29T19:11:04.568Z,20.1
2018-04-29T19:21:03.683Z,19.5
2018-04-29T19:31:04.552Z,21.0
2018-04-29T19:41:03.502Z,21.7
2018-04-29T19:51:04.443Z,18.8
2018-04-29T20:01:04.341Z,18.8
2018-04-29T20:11:04.252Z,17.9
2018-04-29T20:21:04.269Z,21.4
2018-04-29T20:31:04.196Z,22.5
2018-04-29T20:41:04.107Z,22.0
2018-04-29T20:51:02.975Z,32.8
2018-04-29T21:01:04.896Z,38.4
2018-04-29T21:11:04.852Z,27.0
2018-04-29T21:21:04.831Z,27.3
2018-04-29T21:31:03.738Z,27.0
2018-04-29T21:41:04.670Z,26.5
2018-04-29T21:51:04.617Z,25.0
2018-04-29T22:01:04.588Z,23.4
2018-04-29T22:11:04.509Z,27.0
2018-04-29T22:21:04.606Z,28.1
2018-04-29T22:31:04.483Z,25.6
2018-04-29T22:41:04.402Z,28.1
2018-04-29T22:51:04.330Z,26.5
2018-04-29T23:01:04.247Z,27.7
2018-04-29T23:11:04.110Z,27.6
2018-04-29T23:21:04.161Z,25.9
2018-04-29T23:31:04.186Z,27.9
2018-04-29T23:41:04.021Z,28.4
2018-04-29T23:51:05.043Z,26.6
